Time;durP1;ratioP1;P1;durP2;ratioP2;P2;SDS_P1;SDS_P2;PMS_P1;PMS_P2;Temp;Humidity;BMP_temperature;BMP_pressure;BME280_temperature;BME280_humidity;BME280_pressure;Samples;Min_cycle;Max_cycle;Signal;HPM_P1;HPM_P2
2022/10/16 00:03:55;;;;;;;48.03;29.70;;;11.90;99.90;;;;;;10145943;29;20236;-91
2022/10/16 00:08:58;;;;;;;52.70;32.33;;;11.90;99.90;;;;;;10147255;28;20251;-92
2022/10/16 00:14:02;;;;;;;45.97;29.97;;;11.70;99.90;;;;;;10145884;29;20317;-92
2022/10/16 00:19:05;;;;;;;49.03;28.40;;;11.60;99.90;;;;;;10145286;29;20230;-91
2022/10/16 00:24:09;;;;;;;49.83;30.20;;;11.50;99.90;;;;;;10146916;28;20246;-93
2022/10/16 00:29:12;;;;;;;49.87;29.80;;;11.60;99.90;;;;;;10166901;29;20242;-92
2022/10/16 00:34:14;;;;;;;44.10;29.60;;;11.60;99.90;;;;;;10168014;29;20324;-92
2022/10/16 00:39:16;;;;;;;43.80;28.47;;;11.80;99.90;;;;;;10170670;28;20242;-93
2022/10/16 00:44:52;;;;;;;42.80;26.73;;;11.90;99.90;;;;;;10184118;29;20316;-92
2022/10/16 00:50:16;;;;;;;42.83;25.47;;;12.00;99.90;;;;;;10167889;29;20262;-92
2022/10/16 00:55:19;;;;;;;41.57;26.03;;;12.10;99.90;;;;;;10175179;29;20266;-91
2022/10/16 01:00:25;;;;;;;44.93;26.97;;;12.10;99.90;;;;;;10168734;29;20260;-92
2022/10/16 01:05:53;;;;;;;44.80;26.90;;;12.20;99.90;;;;;;10154251;28;20216;-92
2022/10/16 01:11:10;;;;;;;40.00;24.53;;;12.30;99.90;;;;;;10168733;29;20305;-91
2022/10/16 01:16:24;;;;;;;35.97;24.17;;;12.30;99.90;;;;;;10153438;28;20207;-92
2022/10/16 01:21:36;;;;;;;40.00;24.30;;;12.30;99.90;;;;;;10167803;29;20297;-91
2022/10/16 01:27:05;;;;;;;37.73;24.33;;;12.40;99.90;;;;;;10167662;29;20270;-92
2022/10/16 01:32:39;;;;;;;40.10;25.27;;;12.50;99.90;;;;;;10154226;28;20259;-91
2022/10/16 01:38:04;;;;;;;39.47;24.77;;;12.50;99.90;;;;;;10171708;29;20302;-92
2022/10/16 01:43:11;;;;;;;44.43;25.20;;;12.50;99.90;;;;;;10149305;29;20235;-92
2022/10/16 01:48:18;;;;;;;36.03;23.63;;;12.50;99.90;;;;;;10167061;29;20240;-92
2022/10/16 01:53:23;;;;;;;37.37;23.90;;;12.50;99.90;;;;;;10167469;29;20318;-92
2022/10/16 01:58:33;;;;;;;41.17;24.97;;;12.60;99.90;;;;;;10143552;29;20247;-91
2022/10/16 02:03:40;;;;;;;36.70;24.13;;;12.60;99.90;;;;;;10166801;29;20251;-92
2022/10/16 02:08:43;;;;;;;35.73;22.90;;;12.70;99.90;;;;;;10150126;29;20239;-92
2022/10/16 02:13:59;;;;;;;32.93;22.73;;;12.70;99.90;;;;;;10166269;29;20292;-92
2022/10/16 02:19:01;;;;;;;39.10;23.13;;;12.70;99.90;;;;;;10151007;28;20238;-91
2022/10/16 02:24:14;;;;;;;34.77;21.73;;;12.70;99.90;;;;;;10196631;29;20258;-92
2022/10/16 02:29:22;;;;;;;34.77;23.00;;;12.80;99.90;;;;;;10178244;29;20266;-91
2022/10/16 02:34:27;;;;;;;37.13;22.83;;;12.80;99.90;;;;;;10183700;29;20254;-91
2022/10/16 02:39:30;;;;;;;36.37;22.27;;;12.80;99.90;;;;;;10167807;29;20272;-91
2022/10/16 02:44:32;;;;;;;35.00;22.23;;;12.90;99.90;;;;;;10149797;28;20239;-91
2022/10/16 02:49:35;;;;;;;35.40;23.00;;;12.90;99.90;;;;;;10167916;29;20657;-91
2022/10/16 02:54:37;;;;;;;32.53;22.43;;;12.90;99.90;;;;;;10193846;29;20317;-92
2022/10/16 02:59:40;;;;;;;37.10;24.07;;;13.00;99.90;;;;;;10148915;28;20324;-91
2022/10/16 03:04:42;;;;;;;36.77;23.17;;;13.00;99.90;;;;;;10133400;28;20685;-91
2022/10/16 03:09:45;;;;;;;38.60;24.10;;;13.10;99.90;;;;;;10155557;29;20286;-91
2022/10/16 03:14:47;;;;;;;37.10;23.10;;;13.00;99.90;;;;;;10146876;29;20329;-91
2022/10/16 03:19:50;;;;;;;36.87;24.13;;;13.00;99.90;;;;;;10159771;28;20214;-91
2022/10/16 03:24:53;;;;;;;37.10;23.87;;;12.90;99.90;;;;;;10164288;29;20274;-91
2022/10/16 03:29:55;;;;;;;40.70;24.50;;;13.10;99.90;;;;;;10149354;29;20243;-91
2022/10/16 03:34:58;;;;;;;38.07;23.63;;;13.00;99.90;;;;;;10151881;29;20259;-93
2022/10/16 03:40:01;;;;;;;45.90;26.93;;;12.90;99.90;;;;;;10137081;29;20267;-91
2022/10/16 03:45:04;;;;;;;41.07;25.97;;;12.80;99.90;;;;;;10173319;29;20231;-91
2022/10/16 03:50:07;;;;;;;41.13;26.00;;;12.70;99.90;;;;;;10163934;29;20647;-92
2022/10/16 03:55:09;;;;;;;41.63;24.63;;;12.80;99.90;;;;;;10150491;29;20264;-91
2022/10/16 04:00:12;;;;;;;36.87;24.47;;;12.90;99.90;;;;;;10172147;29;20235;-92
2022/10/16 04:05:15;;;;;;;38.43;22.87;;;12.90;99.90;;;;;;10183456;28;20247;-92
2022/10/16 04:10:17;;;;;;;32.97;21.40;;;12.90;99.90;;;;;;10161832;29;20246;-92
2022/10/16 04:15:20;;;;;;;35.10;22.70;;;13.00;99.90;;;;;;10144796;29;20321;-91
2022/10/16 04:20:22;;;;;;;34.20;20.73;;;13.00;99.90;;;;;;10141766;28;20296;-91
2022/10/16 04:25:28;;;;;;;33.47;21.90;;;13.10;99.90;;;;;;10140381;29;20247;-92
2022/10/16 04:30:31;;;;;;;32.07;20.47;;;13.10;99.90;;;;;;10136418;29;20743;-91
2022/10/16 04:35:33;;;;;;;33.97;21.87;;;13.20;99.90;;;;;;10155837;29;20781;-91
2022/10/16 04:40:36;;;;;;;29.17;20.17;;;13.30;99.90;;;;;;10160629;29;20284;-90
2022/10/16 04:45:38;;;;;;;30.90;21.53;;;13.30;99.90;;;;;;10163161;29;20300;-90
2022/10/16 04:50:41;;;;;;;29.83;19.97;;;13.40;99.90;;;;;;10161883;29;20235;-90
2022/10/16 04:55:44;;;;;;;30.00;19.70;;;13.40;99.90;;;;;;10161610;29;20329;-89
2022/10/16 05:00:46;;;;;;;29.17;19.87;;;13.40;99.90;;;;;;10140017;29;20258;-90
2022/10/16 05:05:49;;;;;;;31.37;20.23;;;13.40;99.90;;;;;;10170308;29;20296;-90
2022/10/16 05:10:51;;;;;;;30.13;19.13;;;13.50;99.90;;;;;;10161604;29;20293;-90
2022/10/16 05:15:54;;;;;;;31.90;20.47;;;13.40;99.90;;;;;;10163742;29;20648;-90
2022/10/16 05:20:56;;;;;;;35.40;19.57;;;13.40;99.90;;;;;;10174822;29;20262;-90
2022/10/16 05:25:59;;;;;;;35.70;18.97;;;13.30;99.90;;;;;;10167948;29;20330;-90
2022/10/16 05:31:09;;;;;;;41.07;22.17;;;13.20;99.90;;;;;;10149730;29;20621;-90
2022/10/16 05:36:11;;;;;;;32.33;20.60;;;13.10;99.90;;;;;;10151096;29;20302;-90
2022/10/16 05:41:14;;;;;;;29.80;19.03;;;13.20;99.90;;;;;;10154917;28;20243;-90
2022/10/16 05:46:17;;;;;;;34.03;20.93;;;13.20;99.90;;;;;;10149199;28;20239;-90
2022/10/16 05:51:19;;;;;;;28.60;20.17;;;13.30;99.90;;;;;;10159000;29;20274;-90
2022/10/16 05:56:22;;;;;;;28.10;18.33;;;13.30;99.90;;;;;;10159777;28;20267;-90
2022/10/16 06:01:24;;;;;;;28.37;17.93;;;13.30;99.90;;;;;;10151197;29;20301;-89
2022/10/16 06:06:29;;;;;;;29.70;19.30;;;13.30;99.90;;;;;;10149263;29;20697;-90
2022/10/16 06:11:33;;;;;;;26.93;18.10;;;13.30;99.90;;;;;;10151460;28;20247;-90
2022/10/16 06:16:36;;;;;;;31.97;19.53;;;13.20;99.90;;;;;;10149515;29;20309;-90
2022/10/16 06:21:39;;;;;;;30.27;18.40;;;13.10;99.90;;;;;;10150905;28;20243;-89
2022/10/16 06:26:41;;;;;;;31.33;20.00;;;13.20;99.90;;;;;;10236324;28;20687;-88
2022/10/16 06:31:43;;;;;;;28.43;17.87;;;13.20;99.90;;;;;;10215550;28;20235;-89
2022/10/16 06:36:46;;;;;;;27.93;19.33;;;13.20;99.90;;;;;;10156468;28;20255;-91
2022/10/16 06:41:48;;;;;;;25.30;16.87;;;13.20;99.90;;;;;;10168716;29;20245;-90
2022/10/16 06:46:51;;;;;;;30.07;19.17;;;13.30;99.90;;;;;;10167233;28;20382;-90
2022/10/16 06:51:53;;;;;;;34.17;23.20;;;13.30;99.90;;;;;;10147063;28;20669;-88
2022/10/16 06:56:56;;;;;;;30.40;20.70;;;13.40;99.90;;;;;;10150100;29;20199;-89
2022/10/16 07:01:58;;;;;;;34.97;23.57;;;13.40;99.90;;;;;;10167712;28;20310;-89
2022/10/16 07:07:01;;;;;;;32.40;22.43;;;13.60;99.90;;;;;;10115321;28;20257;-89
2022/10/16 07:12:09;;;;;;;32.60;22.97;;;13.90;99.90;;;;;;10166788;29;20235;-89
2022/10/16 07:17:12;;;;;;;32.90;22.03;;;14.10;99.90;;;;;;10202146;29;20202;-89
2022/10/16 07:22:14;;;;;;;35.77;22.57;;;14.30;99.90;;;;;;10206253;28;20242;-89
2022/10/16 07:27:17;;;;;;;30.93;21.47;;;14.30;99.90;;;;;;10324469;28;20742;-89
2022/10/16 07:32:19;;;;;;;27.57;19.00;;;14.60;99.90;;;;;;10186619;29;20262;-90
2022/10/16 07:37:22;;;;;;;33.70;21.30;;;14.90;99.90;;;;;;10202911;29;20219;-89
2022/10/16 07:42:24;;;;;;;26.70;18.37;;;14.80;99.90;;;;;;10189788;28;20689;-90
2022/10/16 07:47:27;;;;;;;23.00;17.17;;;14.90;99.90;;;;;;10179624;28;20979;-89
2022/10/16 07:52:31;;;;;;;25.90;17.90;;;15.30;99.90;;;;;;10181798;28;20325;-89
2022/10/16 07:57:33;;;;;;;19.77;15.47;;;15.60;99.90;;;;;;10186260;28;20199;-90
2022/10/16 08:02:36;;;;;;;20.97;15.67;;;15.30;99.90;;;;;;10194512;28;20590;-91
2022/10/16 08:07:38;;;;;;;23.90;15.90;;;15.30;99.90;;;;;;10196294;28;20232;-89
2022/10/16 08:12:41;;;;;;;22.80;15.97;;;15.20;99.90;;;;;;10121407;29;20306;-90
2022/10/16 08:17:43;;;;;;;21.23;15.97;;;15.20;99.90;;;;;;10163432;29;20239;-90
2022/10/16 08:22:46;;;;;;;21.10;16.57;;;15.30;99.90;;;;;;10172026;28;20258;-89
2022/10/16 08:27:48;;;;;;;23.50;17.20;;;15.40;99.90;;;;;;10163180;28;20260;-90
2022/10/16 08:32:51;;;;;;;22.10;14.30;;;15.60;99.90;;;;;;10163117;29;20243;-90
2022/10/16 08:37:53;;;;;;;15.53;13.00;;;16.00;99.90;;;;;;10180461;28;20284;-89
2022/10/16 08:43:23;;;;;;;18.67;13.90;;;16.20;99.90;;;;;;10164354;28;20239;-88
2022/10/16 08:48:40;;;;;;;14.53;12.03;;;16.40;99.90;;;;;;10160833;28;20236;-90
2022/10/16 08:53:44;;;;;;;18.33;11.47;;;16.80;99.90;;;;;;10176880;29;20257;-88
2022/10/16 08:58:47;;;;;;;16.53;12.80;;;16.50;99.90;;;;;;10185797;28;20694;-89
2022/10/16 09:04:18;;;;;;;14.93;11.57;;;16.70;99.90;;;;;;10166133;28;20216;-93
2022/10/16 09:09:39;;;;;;;13.63;10.97;;;17.20;99.90;;;;;;10170522;29;20216;-90
2022/10/16 09:14:50;;;;;;;15.83;11.43;;;17.50;99.90;;;;;;10169209;29;20250;-90
2022/10/16 09:20:18;;;;;;;15.30;11.10;;;17.70;99.90;;;;;;10168949;29;20227;-90
2022/10/16 09:25:21;;;;;;;11.73;10.03;;;17.80;99.90;;;;;;10153504;28;20688;-89
2022/10/16 09:30:29;;;;;;;13.67;10.63;;;18.10;99.90;;;;;;10169763;28;20703;-89
2022/10/16 09:35:37;;;;;;;11.27;9.07;;;18.30;99.90;;;;;;10152855;28;20794;-89
2022/10/16 09:40:42;;;;;;;12.03;9.47;;;18.30;99.90;;;;;;10152064;29;20292;-90
2022/10/16 09:45:56;;;;;;;12.17;9.47;;;18.50;99.90;;;;;;10151485;28;20204;-90
2022/10/16 09:51:02;;;;;;;13.17;10.70;;;18.20;99.90;;;;;;10151735;28;20242;-90
2022/10/16 09:56:06;;;;;;;11.50;10.30;;;18.40;99.90;;;;;;10151297;28;20346;-89
2022/10/16 10:01:15;;;;;;;10.03;8.93;;;18.50;99.90;;;;;;10150355;28;20725;-90
2022/10/16 10:06:20;;;;;;;15.73;11.53;;;;;;;;;;10167186;29;20294;-90
2022/10/16 10:11:51;;;;;;;11.53;8.73;;;18.60;99.90;;;;;;10167046;29;20235;-90
2022/10/16 10:17:09;;;;;;;13.77;11.03;;;18.70;99.90;;;;;;10166832;29;20309;-90
2022/10/16 10:22:45;;;;;;;11.17;9.40;;;18.50;99.90;;;;;;10167294;29;21024;-89
2022/10/16 10:28:03;;;;;;;13.10;11.43;;;18.70;99.90;;;;;;10319698;28;20611;-89
2022/10/16 10:33:27;;;;;;;11.57;10.17;;;18.80;99.90;;;;;;10354046;28;20237;-92
2022/10/16 10:39:06;;;;;;;10.30;8.23;;;19.10;99.90;;;;;;10233475;28;20252;-93
2022/10/16 10:44:32;;;;;;;9.13;8.17;;;19.30;99.90;;;;;;10157895;28;20208;-92
2022/10/16 10:49:59;;;;;;;9.57;8.37;;;19.30;99.90;;;;;;10165620;29;20226;-92
2022/10/16 10:55:19;;;;;;;9.13;8.23;;;19.40;99.90;;;;;;10169350;29;20267;-90
2022/10/16 11:00:54;;;;;;;10.03;8.93;;;19.50;99.90;;;;;;10164756;29;20243;-91
2022/10/16 11:06:24;;;;;;;10.43;9.27;;;19.40;99.90;;;;;;10165099;28;20231;-91
2022/10/16 11:11:49;;;;;;;11.83;9.17;;;19.20;99.90;;;;;;10152922;29;20282;-91
2022/10/16 11:16:57;;;;;;;11.97;9.57;;;19.10;99.90;;;;;;10165190;29;20255;-92
2022/10/16 11:38:43;;;;;;;11.57;9.63;;;19.30;99.90;;;;;;10314010;23;10001873;-88
2022/10/16 11:44:05;;;;;;;7.27;6.57;;;19.40;99.90;;;;;;10079631;29;20556;-91
2022/10/16 11:49:23;;;;;;;9.83;7.57;;;19.40;99.90;;;;;;10092806;29;20277;-92
2022/10/16 11:54:45;;;;;;;13.10;8.23;;;19.60;99.90;;;;;;10092442;29;20256;-91
2022/10/16 12:00:00;;;;;;;9.80;8.47;;;19.60;99.90;;;;;;10082507;29;20239;-91
2022/10/16 12:05:17;;;;;;;11.50;9.97;;;19.60;99.90;;;;;;10076076;29;20213;-91
2022/10/16 12:10:23;;;;;;;7.40;6.40;;;19.50;99.90;;;;;;10092822;29;20209;-91
2022/10/16 12:15:32;;;;;;;8.27;6.37;;;19.50;99.90;;;;;;10082188;29;20285;-91
2022/10/16 12:21:04;;;;;;;7.60;6.33;;;19.50;99.90;;;;;;10050068;29;20216;-92
2022/10/16 12:26:06;;;;;;;7.20;6.10;;;19.60;99.90;;;;;;10091742;29;20209;-92
2022/10/16 12:31:12;;;;;;;7.33;6.63;;;19.80;99.90;;;;;;10092542;29;20205;-90
2022/10/16 12:36:27;;;;;;;9.60;7.00;;;19.70;99.90;;;;;;10091857;29;20720;-92
2022/10/16 12:41:30;;;;;;;7.43;6.40;;;19.50;99.90;;;;;;10089232;29;20249;-91
2022/10/16 12:46:35;;;;;;;7.33;6.63;;;19.50;99.90;;;;;;10068813;29;20580;-91
2022/10/16 12:51:38;;;;;;;11.43;9.33;;;19.40;99.90;;;;;;10090586;29;20279;-91
2022/10/16 12:56:56;;;;;;;12.87;10.97;;;19.40;99.90;;;;;;10091007;29;20288;-91
2022/10/16 13:02:32;;;;;;;12.33;9.63;;;19.50;99.90;;;;;;10074873;29;20336;-93
2022/10/16 13:07:51;;;;;;;6.27;5.67;;;19.80;99.90;;;;;;10090022;29;20253;-88
2022/10/16 13:12:59;;;;;;;11.13;9.80;;;20.30;99.90;;;;;;10090370;29;20241;-90
2022/10/16 13:18:10;;;;;;;13.13;11.67;;;19.90;99.90;;;;;;9419029;29;10000522;-89
2022/10/16 13:23:25;;;;;;;7.97;6.57;;;19.60;99.90;;;;;;10051987;29;20309;-89
2022/10/16 13:28:31;;;;;;;8.27;6.57;;;19.30;99.90;;;;;;10034062;29;20273;-90
2022/10/16 13:33:37;;;;;;;10.63;7.17;;;19.30;99.90;;;;;;10080694;29;20697;-90
2022/10/16 13:38:39;;;;;;;10.53;7.77;;;19.50;99.90;;;;;;10090635;29;20645;-90
2022/10/16 13:43:49;;;;;;;12.00;10.03;;;19.40;99.90;;;;;;10094964;29;20235;-90
2022/10/16 13:49:11;;;;;;;14.03;10.97;;;19.50;99.90;;;;;;10055891;29;20236;-89
2022/10/16 13:54:13;;;;;;;14.73;11.03;;;19.40;99.90;;;;;;10048552;29;20286;-89
2022/10/16 13:59:38;;;;;;;14.60;12.33;;;19.20;99.90;;;;;;10062659;29;20308;-90
2022/10/16 14:04:41;;;;;;;11.83;10.27;;;19.10;99.90;;;;;;10095355;29;20247;-90
2022/10/16 14:09:49;;;;;;;9.53;8.00;;;19.10;99.90;;;;;;10094116;29;20296;-92
2022/10/16 14:14:54;;;;;;;12.40;10.03;;;19.20;99.90;;;;;;10096110;29;20335;-92
2022/10/16 14:19:59;;;;;;;11.00;9.53;;;19.10;99.90;;;;;;10093961;29;20221;-89
2022/10/16 14:25:19;;;;;;;8.23;7.43;;;19.10;99.90;;;;;;10079609;29;20237;-90
2022/10/16 14:30:22;;;;;;;10.27;8.67;;;19.20;99.90;;;;;;10085218;29;20317;-90
2022/10/16 14:35:31;;;;;;;8.43;7.63;;;19.10;99.90;;;;;;10095167;29;20244;-90
2022/10/16 14:40:36;;;;;;;8.97;8.03;;;19.00;99.90;;;;;;10093167;29;20272;-90
2022/10/16 14:45:41;;;;;;;5.30;4.77;;;19.00;99.90;;;;;;10075680;29;20296;-90
2022/10/16 14:50:44;;;;;;;7.67;6.70;;;19.00;99.90;;;;;;10096149;29;20233;-90
2022/10/16 14:55:48;;;;;;;10.20;8.73;;;19.30;99.90;;;;;;10065089;29;20601;-91
2022/10/16 15:00:50;;;;;;;10.67;9.17;;;19.20;99.90;;;;;;10079195;29;20213;-90
2022/10/16 15:05:53;;;;;;;11.20;8.30;;;19.00;99.90;;;;;;10079282;29;20285;-90
2022/10/16 15:10:55;;;;;;;7.17;6.47;;;19.00;99.90;;;;;;10073374;29;20275;-90
2022/10/16 15:15:58;;;;;;;9.80;8.07;;;19.00;99.90;;;;;;10094088;29;20256;-90
2022/10/16 15:21:01;;;;;;;10.27;8.93;;;19.00;99.90;;;;;;10081255;29;20210;-91
2022/10/16 15:26:03;;;;;;;12.30;7.90;;;18.90;99.90;;;;;;10084609;29;20249;-91
2022/10/16 15:31:06;;;;;;;7.87;7.07;;;18.80;99.90;;;;;;10080813;29;20245;-91
2022/10/16 15:36:08;;;;;;;10.77;9.27;;;18.70;99.90;;;;;;10081302;29;20260;-90
2022/10/16 15:41:10;;;;;;;8.67;7.43;;;18.50;99.90;;;;;;10009873;29;20707;-92
2022/10/16 15:46:14;;;;;;;7.57;6.87;;;18.30;99.90;;;;;;10011969;29;20303;-92
2022/10/16 15:51:17;;;;;;;6.90;6.20;;;17.80;99.90;;;;;;10016091;29;20245;-91
2022/10/16 15:56:22;;;;;;;11.70;8.03;;;17.20;99.90;;;;;;10017816;29;20250;-91
2022/10/16 16:01:24;;;;;;;9.87;7.37;;;16.70;99.90;;;;;;10014640;29;20208;-92
2022/10/16 16:06:28;;;;;;;12.50;7.70;;;16.20;99.90;;;;;;10012721;29;20214;-92
2022/10/16 16:11:31;;;;;;;10.83;7.80;;;15.90;99.90;;;;;;10003961;29;20247;-91
2022/10/16 16:16:37;;;;;;;9.77;7.53;;;15.50;99.90;;;;;;9995079;29;20318;-91
2022/10/16 16:21:39;;;;;;;13.50;7.50;;;15.10;99.90;;;;;;10009099;29;20259;-92
2022/10/16 16:26:43;;;;;;;16.87;8.80;;;14.60;99.90;;;;;;10015793;29;20278;-92
2022/10/16 16:31:46;;;;;;;12.03;8.37;;;14.40;99.90;;;;;;10011739;29;20237;-92
2022/10/16 16:36:49;;;;;;;12.97;9.80;;;14.30;99.90;;;;;;10022941;29;20297;-91
2022/10/16 16:41:52;;;;;;;18.37;10.57;;;14.10;99.90;;;;;;10058745;29;20237;-92
2022/10/16 16:46:55;;;;;;;21.47;11.13;;;13.90;99.90;;;;;;10090807;29;20292;-92
2022/10/16 16:51:57;;;;;;;15.33;10.37;;;13.80;99.90;;;;;;10058251;29;20248;-92
2022/10/16 16:57:00;;;;;;;14.10;10.50;;;13.50;99.90;;;;;;10066715;29;20229;-91
2022/10/16 17:02:03;;;;;;;22.43;10.73;;;13.30;99.90;;;;;;10085378;29;20236;-92
2022/10/16 17:07:06;;;;;;;28.40;18.73;;;13.10;99.90;;;;;;10079656;29;20241;-92
2022/10/16 17:12:08;;;;;;;33.43;17.70;;;13.20;99.90;;;;;;10069592;29;20297;-91
2022/10/16 17:17:12;;;;;;;35.33;22.47;;;13.20;99.90;;;;;;10062507;29;20252;-91
2022/10/16 17:22:14;;;;;;;36.23;24.80;;;13.30;99.90;;;;;;10098088;29;20240;-91
2022/10/16 17:27:18;;;;;;;53.60;35.57;;;13.20;99.90;;;;;;10096500;29;20289;-91
2022/10/16 17:32:22;;;;;;;41.77;26.33;;;13.20;99.90;;;;;;10064359;29;20266;-91
2022/10/16 17:37:25;;;;;;;49.77;32.17;;;12.90;99.90;;;;;;10080416;29;20275;-92
2022/10/16 17:42:27;;;;;;;53.03;32.87;;;12.80;99.90;;;;;;10098238;29;20261;-92
2022/10/16 17:47:30;;;;;;;57.63;35.57;;;12.80;99.90;;;;;;10081389;29;20245;-92
2022/10/16 17:52:33;;;;;;;61.60;37.80;;;12.60;99.90;;;;;;10081405;29;20245;-92
2022/10/16 17:57:35;;;;;;;63.80;40.77;;;12.60;99.90;;;;;;10080678;29;20296;-92
2022/10/16 18:02:41;;;;;;;67.60;42.03;;;12.40;99.90;;;;;;10095481;29;20240;-92
2022/10/16 18:07:43;;;;;;;80.47;47.83;;;12.30;99.90;;;;;;10078905;29;20213;-93
2022/10/16 18:12:46;;;;;;;66.23;42.40;;;12.40;99.90;;;;;;10081381;29;20289;-93
2022/10/16 18:17:48;;;;;;;75.27;44.90;;;12.10;99.90;;;;;;10078186;29;20332;-92
2022/10/16 18:22:51;;;;;;;84.30;53.07;;;12.00;99.90;;;;;;10078746;29;20770;-92
2022/10/16 18:27:53;;;;;;;84.60;52.37;;;12.00;99.90;;;;;;10078462;29;20269;-93
2022/10/16 18:32:56;;;;;;;77.33;45.47;;;11.90;99.90;;;;;;10088259;29;20208;-93
2022/10/16 18:37:59;;;;;;;71.10;45.27;;;11.70;99.90;;;;;;10066558;29;20261;-91
2022/10/16 18:43:02;;;;;;;70.63;44.97;;;11.40;99.90;;;;;;10094969;29;20242;-92
2022/10/16 18:48:05;;;;;;;69.70;44.73;;;11.40;99.90;;;;;;10063383;29;20212;-92
2022/10/16 18:53:07;;;;;;;71.97;47.13;;;11.40;99.90;;;;;;10095389;29;20247;-92
2022/10/16 18:58:10;;;;;;;66.37;42.93;;;11.20;99.90;;;;;;10061010;29;20263;-92
2022/10/16 19:03:12;;;;;;;72.27;44.57;;;11.20;99.90;;;;;;10077798;29;20240;-92
2022/10/16 19:08:15;;;;;;;74.83;43.60;;;11.10;99.90;;;;;;10094146;29;20234;-92
2022/10/16 19:13:17;;;;;;;75.70;48.27;;;11.00;99.90;;;;;;10092632;29;20256;-92
2022/10/16 19:18:20;;;;;;;76.23;45.13;;;11.20;99.90;;;;;;10085428;29;20254;-93
2022/10/16 19:23:28;;;;;;;81.97;50.53;;;10.80;99.90;;;;;;10061064;29;20274;-92
2022/10/16 19:28:31;;;;;;;83.80;46.40;;;11.30;99.90;;;;;;10045543;29;20258;-93
2022/10/16 19:33:34;;;;;;;60.70;37.90;;;11.20;99.90;;;;;;10045430;29;20244;-93
2022/10/16 19:38:37;;;;;;;62.50;38.30;;;10.90;99.90;;;;;;10091867;29;20322;-91
2022/10/16 19:43:40;;;;;;;71.50;41.03;;;10.70;99.90;;;;;;10075954;29;20243;-92
2022/10/16 19:48:44;;;;;;;79.83;45.90;;;10.80;99.90;;;;;;10054009;29;20240;-92
2022/10/16 19:53:52;;;;;;;66.60;43.80;;;10.80;99.90;;;;;;10068668;29;20246;-92
2022/10/16 19:58:56;;;;;;;78.27;45.03;;;10.80;99.90;;;;;;10091228;29;20282;-91
2022/10/16 20:03:59;;;;;;;63.90;38.57;;;10.80;99.90;;;;;;10061087;29;20233;-92
2022/10/16 20:09:02;;;;;;;73.30;40.93;;;10.60;99.90;;;;;;10055730;29;20637;-92
2022/10/16 20:14:07;;;;;;;82.07;43.00;;;10.20;99.90;;;;;;10089332;29;20669;-92
2022/10/16 20:19:09;;;;;;;69.10;40.27;;;10.20;99.90;;;;;;10074239;29;20320;-93
2022/10/16 20:24:12;;;;;;;87.87;51.03;;;10.20;99.90;;;;;;10089329;29;20248;-91
2022/10/16 20:29:14;;;;;;;97.03;54.13;;;10.30;99.90;;;;;;10072823;29;20265;-92
2022/10/16 20:34:17;;;;;;;72.93;43.27;;;10.50;99.90;;;;;;10074250;29;20245;-91
2022/10/16 20:39:19;;;;;;;89.83;47.23;;;10.00;99.90;;;;;;10073519;29;20963;-92
2022/10/16 20:44:22;;;;;;;73.63;45.80;;;10.00;99.90;;;;;;10074784;29;20247;-92
2022/10/16 20:49:24;;;;;;;73.63;44.43;;;10.00;99.90;;;;;;10081596;29;20213;-91
2022/10/16 20:54:44;;;;;;;90.20;51.87;;;9.90;99.90;;;;;;10083752;29;20643;-91
2022/10/16 20:59:47;;;;;;;89.67;49.10;;;10.30;99.90;;;;;;10082209;29;20723;-91
2022/10/16 21:04:50;;;;;;;78.53;42.97;;;10.00;99.90;;;;;;10098393;29;20233;-91
2022/10/16 21:09:56;;;;;;;82.30;44.70;;;9.80;99.90;;;;;;10097208;29;20253;-91
2022/10/16 21:14:59;;;;;;;77.53;43.53;;;9.60;99.90;;;;;;10096115;29;20245;-90
2022/10/16 21:20:16;;;;;;;70.30;42.40;;;9.50;99.90;;;;;;10072206;29;20244;-91
2022/10/16 21:25:18;;;;;;;65.63;38.30;;;9.50;99.90;;;;;;10097223;29;20248;-91
2022/10/16 21:30:21;;;;;;;60.40;34.17;;;9.40;99.90;;;;;;10095325;29;20269;-91
2022/10/16 21:35:24;;;;;;;60.00;34.93;;;9.40;99.90;;;;;;10053082;29;20246;-90
2022/10/16 21:40:28;;;;;;;51.50;31.37;;;9.30;99.90;;;;;;10071724;29;20284;-91
2022/10/16 21:45:32;;;;;;;47.43;31.97;;;9.20;99.90;;;;;;10089516;29;20297;-92
2022/10/16 21:50:35;;;;;;;50.73;29.87;;;9.40;99.90;;;;;;10087995;29;20296;-91
2022/10/16 21:55:37;;;;;;;46.10;30.30;;;9.30;99.90;;;;;;10077616;29;20261;-90
2022/10/16 22:00:39;;;;;;;53.70;32.90;;;9.30;99.90;;;;;;10078234;29;20224;-91
2022/10/16 22:05:42;;;;;;;52.20;32.73;;;9.30;99.90;;;;;;10096040;29;20679;-91
2022/10/16 22:10:45;;;;;;;43.47;28.20;;;9.40;99.90;;;;;;10077785;29;20291;-91
2022/10/16 22:15:51;;;;;;;46.00;28.50;;;9.40;99.90;;;;;;10091143;29;20233;-91
2022/10/16 22:20:53;;;;;;;43.70;26.33;;;9.50;99.90;;;;;;10077502;29;20237;-90
2022/10/16 22:26:01;;;;;;;39.17;24.77;;;9.70;99.90;;;;;;10078316;29;20264;-91
2022/10/16 22:31:05;;;;;;;37.20;24.03;;;9.90;99.90;;;;;;10078074;29;20645;-91
2022/10/16 22:36:11;;;;;;;33.67;22.30;;;9.90;99.90;;;;;;10078383;29;20252;-91
2022/10/16 22:41:14;;;;;;;35.87;22.17;;;10.00;99.90;;;;;;10076033;29;20754;-90
2022/10/16 22:46:19;;;;;;;32.13;21.23;;;10.10;99.90;;;;;;10078680;29;20236;-91
2022/10/16 22:51:23;;;;;;;35.47;22.87;;;10.30;99.90;;;;;;10095009;29;20241;-91
2022/10/16 22:56:26;;;;;;;34.30;22.73;;;10.50;99.90;;;;;;10092991;29;20698;-91
2022/10/16 23:01:39;;;;;;;34.40;21.37;;;10.60;99.90;;;;;;10092074;29;20232;-91
2022/10/16 23:06:41;;;;;;;33.63;21.37;;;10.70;99.90;;;;;;10074766;29;20281;-91
2022/10/16 23:11:44;;;;;;;32.97;20.77;;;10.60;99.90;;;;;;10073132;29;20606;-91
2022/10/16 23:16:47;;;;;;;33.67;23.00;;;10.70;99.90;;;;;;10082604;29;20324;-91
2022/10/16 23:21:49;;;;;;;32.10;21.13;;;10.70;99.90;;;;;;10090429;29;20261;-91
2022/10/16 23:26:52;;;;;;;32.57;20.00;;;10.80;99.90;;;;;;10089011;29;20302;-92
2022/10/16 23:31:55;;;;;;;32.63;20.30;;;10.80;99.90;;;;;;10075623;29;20249;-91
2022/10/16 23:36:57;;;;;;;28.57;20.53;;;10.90;99.90;;;;;;10092433;29;20295;-92
2022/10/16 23:42:00;;;;;;;29.63;20.03;;;10.90;99.90;;;;;;10092824;29;20259;-92
2022/10/16 23:47:02;;;;;;;28.90;20.17;;;11.00;99.90;;;;;;10074064;29;20244;-90
2022/10/16 23:52:06;;;;;;;31.33;19.87;;;11.00;99.90;;;;;;10075726;29;20758;-91
2022/10/16 23:57:08;;;;;;;30.80;19.63;;;11.20;99.90;;;;;;10091795;29;20814;-92
